sensor_id;sensor_type;location;lat;lon;timestamp;P1;P2;P0
53658;PMS5003;41524;35.624;139.698;2023-07-31T00:00:14;3.00;3.00;
53658;PMS5003;41524;35.624;139.698;2023-07-31T00:05:09;5.00;5.00;
53658;PMS5003;41524;35.624;139.698;2023-07-31T00:10:10;8.00;6.00;
53658;PMS5003;41524;35.624;139.698;2023-07-31T00:15:09;5.00;5.00;
53658;PMS5003;41524;35.624;139.698;2023-07-31T00:20:09;4.00;4.00;
53658;PMS5003;41524;35.624;139.698;2023-07-31T00:25:10;4.00;4.00;
53658;PMS5003;41524;35.624;139.698;2023-07-31T00:30:10;4.00;4.00;
53658;PMS5003;41524;35.624;139.698;2023-07-31T00:35:09;5.00;5.00;
53658;PMS5003;41524;35.624;139.698;2023-07-31T00:40:09;4.00;4.00;
53658;PMS5003;41524;35.624;139.698;2023-07-31T00:45:09;6.00;5.00;
53658;PMS5003;41524;35.624;139.698;2023-07-31T00:50:10;4.00;4.00;
53658;PMS5003;41524;35.624;139.698;2023-07-31T00:55:09;7.00;7.00;
53658;PMS5003;41524;35.624;139.698;2023-07-31T01:00:10;6.00;5.00;
53658;PMS5003;41524;35.624;139.698;2023-07-31T01:05:10;6.00;6.00;
53658;PMS5003;41524;35.624;139.698;2023-07-31T01:10:11;4.00;4.00;
53658;PMS5003;41524;35.624;139.698;2023-07-31T01:15:10;7.00;7.00;
53658;PMS5003;41524;35.624;139.698;2023-07-31T01:20:10;5.00;5.00;
53658;PMS5003;41524;35.624;139.698;2023-07-31T01:25:13;7.00;5.00;
53658;PMS5003;41524;35.624;139.698;2023-07-31T01:30:09;4.00;4.00;
53658;PMS5003;41524;35.624;139.698;2023-07-31T01:35:11;5.00;5.00;
53658;PMS5003;41524;35.624;139.698;2023-07-31T01:40:10;5.00;5.00;
53658;PMS5003;41524;35.624;139.698;2023-07-31T01:45:24;6.00;6.00;
53658;PMS5003;41524;35.624;139.698;2023-07-31T01:50:09;6.00;5.00;
53658;PMS5003;41524;35.624;139.698;2023-07-31T01:55:09;6.00;6.00;
53658;PMS5003;41524;35.624;139.698;2023-07-31T02:00:09;4.00;4.00;
53658;PMS5003;41524;35.624;139.698;2023-07-31T02:05:09;5.00;5.00;
53658;PMS5003;41524;35.624;139.698;2023-07-31T02:10:10;4.00;4.00;
53658;PMS5003;41524;35.624;139.698;2023-07-31T02:15:10;3.00;3.00;
53658;PMS5003;41524;35.624;139.698;2023-07-31T02:20:10;3.00;3.00;
53658;PMS5003;41524;35.624;139.698;2023-07-31T02:25:09;3.00;3.00;
53658;PMS5003;41524;35.624;139.698;2023-07-31T02:30:09;4.00;3.00;
53658;PMS5003;41524;35.624;139.698;2023-07-31T02:35:09;3.00;3.00;
53658;PMS5003;41524;35.624;139.698;2023-07-31T02:40:10;3.00;3.00;
53658;PMS5003;41524;35.624;139.698;2023-07-31T02:45:09;3.00;3.00;
53658;PMS5003;41524;35.624;139.698;2023-07-31T02:50:09;5.00;4.00;
53658;PMS5003;41524;35.624;139.698;2023-07-31T02:55:10;8.00;8.00;
53658;PMS5003;41524;35.624;139.698;2023-07-31T03:00:09;4.00;4.00;
53658;PMS5003;41524;35.624;139.698;2023-07-31T03:05:09;2.00;2.00;
53658;PMS5003;41524;35.624;139.698;2023-07-31T03:10:08;3.00;3.00;
53658;PMS5003;41524;35.624;139.698;2023-07-31T03:15:10;3.00;3.00;
53658;PMS5003;41524;35.624;139.698;2023-07-31T03:20:10;4.00;4.00;
53658;PMS5003;41524;35.624;139.698;2023-07-31T03:25:09;4.00;4.00;
53658;PMS5003;41524;35.624;139.698;2023-07-31T03:30:18;4.00;4.00;
53658;PMS5003;41524;35.624;139.698;2023-07-31T03:35:09;4.00;4.00;
53658;PMS5003;41524;35.624;139.698;2023-07-31T03:40:10;2.00;2.00;
53658;PMS5003;41524;35.624;139.698;2023-07-31T03:45:09;2.00;2.00;
53658;PMS5003;41524;35.624;139.698;2023-07-31T03:50:09;2.00;2.00;
53658;PMS5003;41524;35.624;139.698;2023-07-31T03:55:09;5.00;4.00;
53658;PMS5003;41524;35.624;139.698;2023-07-31T04:00:10;3.00;3.00;
53658;PMS5003;41524;35.624;139.698;2023-07-31T04:05:10;3.00;3.00;
53658;PMS5003;41524;35.624;139.698;2023-07-31T04:10:09;1.00;1.00;
53658;PMS5003;41524;35.624;139.698;2023-07-31T04:15:10;4.00;4.00;
53658;PMS5003;41524;35.624;139.698;2023-07-31T04:20:10;1.00;1.00;
53658;PMS5003;41524;35.624;139.698;2023-07-31T04:25:09;2.00;2.00;
53658;PMS5003;41524;35.624;139.698;2023-07-31T04:30:09;1.00;1.00;
53658;PMS5003;41524;35.624;139.698;2023-07-31T04:35:09;1.00;1.00;
53658;PMS5003;41524;35.624;139.698;2023-07-31T04:40:10;1.00;1.00;
53658;PMS5003;41524;35.624;139.698;2023-07-31T04:45:09;1.00;1.00;
53658;PMS5003;41524;35.624;139.698;2023-07-31T04:50:09;1.00;1.00;
53658;PMS5003;41524;35.624;139.698;2023-07-31T04:55:09;1.00;1.00;
53658;PMS5003;41524;35.624;139.698;2023-07-31T05:00:08;2.00;2.00;
53658;PMS5003;41524;35.624;139.698;2023-07-31T05:05:09;1.00;1.00;
53658;PMS5003;41524;35.624;139.698;2023-07-31T05:10:10;3.00;2.00;
53658;PMS5003;41524;35.624;139.698;2023-07-31T05:15:10;2.00;2.00;
53658;PMS5003;41524;35.624;139.698;2023-07-31T05:20:09;1.00;1.00;
53658;PMS5003;41524;35.624;139.698;2023-07-31T05:25:10;1.00;1.00;
53658;PMS5003;41524;35.624;139.698;2023-07-31T05:30:10;1.00;1.00;
53658;PMS5003;41524;35.624;139.698;2023-07-31T05:35:09;2.00;2.00;
53658;PMS5003;41524;35.624;139.698;2023-07-31T05:40:09;1.00;1.00;
53658;PMS5003;41524;35.624;139.698;2023-07-31T05:45:09;2.00;2.00;
53658;PMS5003;41524;35.624;139.698;2023-07-31T05:50:09;2.00;2.00;
53658;PMS5003;41524;35.624;139.698;2023-07-31T05:55:09;2.00;2.00;
53658;PMS5003;41524;35.624;139.698;2023-07-31T06:00:09;2.00;2.00;
53658;PMS5003;41524;35.624;139.698;2023-07-31T06:05:10;2.00;2.00;
53658;PMS5003;41524;35.624;139.698;2023-07-31T06:10:09;1.00;1.00;
53658;PMS5003;41524;35.624;139.698;2023-07-31T06:15:09;2.00;2.00;
53658;PMS5003;41524;35.624;139.698;2023-07-31T06:20:10;2.00;2.00;
53658;PMS5003;41524;35.624;139.698;2023-07-31T06:25:09;0.00;0.00;
53658;PMS5003;41524;35.624;139.698;2023-07-31T06:30:09;1.00;1.00;
53658;PMS5003;41524;35.624;139.698;2023-07-31T06:35:09;2.00;2.00;
53658;PMS5003;41524;35.624;139.698;2023-07-31T06:40:09;2.00;2.00;
53658;PMS5003;41524;35.624;139.698;2023-07-31T06:45:10;1.00;1.00;
53658;PMS5003;41524;35.624;139.698;2023-07-31T06:50:10;1.00;1.00;
53658;PMS5003;41524;35.624;139.698;2023-07-31T06:55:16;2.00;2.00;
53658;PMS5003;41524;35.624;139.698;2023-07-31T07:00:09;1.00;1.00;
53658;PMS5003;41524;35.624;139.698;2023-07-31T07:05:09;3.00;2.00;
53658;PMS5003;41524;35.624;139.698;2023-07-31T07:10:09;3.00;2.00;
53658;PMS5003;41524;35.624;139.698;2023-07-31T07:15:09;0.00;0.00;
53658;PMS5003;41524;35.624;139.698;2023-07-31T07:20:09;2.00;2.00;
53658;PMS5003;41524;35.624;139.698;2023-07-31T07:25:09;4.00;4.00;
53658;PMS5003;41524;35.624;139.698;2023-07-31T07:30:08;3.00;2.00;
53658;PMS5003;41524;35.624;139.698;2023-07-31T07:35:09;4.00;3.00;
53658;PMS5003;41524;35.624;139.698;2023-07-31T07:40:09;4.00;2.00;
53658;PMS5003;41524;35.624;139.698;2023-07-31T07:45:09;2.00;2.00;
53658;PMS5003;41524;35.624;139.698;2023-07-31T07:50:10;3.00;2.00;
53658;PMS5003;41524;35.624;139.698;2023-07-31T07:55:09;4.00;4.00;
53658;PMS5003;41524;35.624;139.698;2023-07-31T08:00:09;1.00;1.00;
53658;PMS5003;41524;35.624;139.698;2023-07-31T08:05:10;3.00;1.00;
53658;PMS5003;41524;35.624;139.698;2023-07-31T08:10:10;0.00;0.00;
53658;PMS5003;41524;35.624;139.698;2023-07-31T08:15:09;3.00;2.00;
53658;PMS5003;41524;35.624;139.698;2023-07-31T08:20:09;1.00;1.00;
53658;PMS5003;41524;35.624;139.698;2023-07-31T08:25:10;1.00;1.00;
53658;PMS5003;41524;35.624;139.698;2023-07-31T08:30:09;2.00;2.00;
53658;PMS5003;41524;35.624;139.698;2023-07-31T08:35:09;3.00;1.00;
53658;PMS5003;41524;35.624;139.698;2023-07-31T08:40:09;6.00;3.00;
53658;PMS5003;41524;35.624;139.698;2023-07-31T08:45:09;1.00;1.00;
53658;PMS5003;41524;35.624;139.698;2023-07-31T08:50:10;1.00;1.00;
53658;PMS5003;41524;35.624;139.698;2023-07-31T08:55:09;1.00;1.00;
53658;PMS5003;41524;35.624;139.698;2023-07-31T09:00:10;2.00;2.00;
53658;PMS5003;41524;35.624;139.698;2023-07-31T09:05:10;1.00;1.00;
53658;PMS5003;41524;35.624;139.698;2023-07-31T09:10:09;1.00;1.00;
53658;PMS5003;41524;35.624;139.698;2023-07-31T09:15:09;1.00;1.00;
53658;PMS5003;41524;35.624;139.698;2023-07-31T09:20:15;1.00;1.00;
53658;PMS5003;41524;35.624;139.698;2023-07-31T09:25:17;2.00;1.00;
53658;PMS5003;41524;35.624;139.698;2023-07-31T09:30:10;4.00;1.00;
53658;PMS5003;41524;35.624;139.698;2023-07-31T09:35:28;1.00;1.00;
53658;PMS5003;41524;35.624;139.698;2023-07-31T09:40:10;1.00;1.00;
53658;PMS5003;41524;35.624;139.698;2023-07-31T09:45:10;1.00;1.00;
53658;PMS5003;41524;35.624;139.698;2023-07-31T09:50:09;3.00;3.00;
53658;PMS5003;41524;35.624;139.698;2023-07-31T09:55:09;4.00;4.00;
53658;PMS5003;41524;35.624;139.698;2023-07-31T10:00:10;2.00;2.00;
53658;PMS5003;41524;35.624;139.698;2023-07-31T10:05:09;0.00;0.00;
53658;PMS5003;41524;35.624;139.698;2023-07-31T10:10:09;0.00;0.00;
53658;PMS5003;41524;35.624;139.698;2023-07-31T10:15:09;3.00;3.00;
53658;PMS5003;41524;35.624;139.698;2023-07-31T10:20:10;1.00;1.00;
53658;PMS5003;41524;35.624;139.698;2023-07-31T10:25:09;2.00;2.00;
53658;PMS5003;41524;35.624;139.698;2023-07-31T10:30:11;3.00;1.00;
53658;PMS5003;41524;35.624;139.698;2023-07-31T10:35:10;1.00;1.00;
53658;PMS5003;41524;35.624;139.698;2023-07-31T10:40:10;1.00;1.00;
53658;PMS5003;41524;35.624;139.698;2023-07-31T10:45:10;0.00;0.00;
53658;PMS5003;41524;35.624;139.698;2023-07-31T10:50:13;2.00;2.00;
53658;PMS5003;41524;35.624;139.698;2023-07-31T10:55:23;5.00;2.00;
53658;PMS5003;41524;35.624;139.698;2023-07-31T11:00:24;1.00;1.00;
53658;PMS5003;41524;35.624;139.698;2023-07-31T11:05:09;23.00;23.00;
53658;PMS5003;41524;35.624;139.698;2023-07-31T11:10:08;62.00;61.00;
53658;PMS5003;41524;35.624;139.698;2023-07-31T11:15:09;102.00;93.00;
53658;PMS5003;41524;35.624;139.698;2023-07-31T11:20:10;118.00;100.00;
53658;PMS5003;41524;35.624;139.698;2023-07-31T11:25:09;108.00;100.00;
53658;PMS5003;41524;35.624;139.698;2023-07-31T11:30:09;132.00;118.00;
53658;PMS5003;41524;35.624;139.698;2023-07-31T11:35:12;120.00;109.00;
53658;PMS5003;41524;35.624;139.698;2023-07-31T11:40:09;18.00;14.00;
53658;PMS5003;41524;35.624;139.698;2023-07-31T11:45:09;8.00;4.00;
53658;PMS5003;41524;35.624;139.698;2023-07-31T11:50:10;7.00;4.00;
53658;PMS5003;41524;35.624;139.698;2023-07-31T11:55:16;4.00;4.00;
53658;PMS5003;41524;35.624;139.698;2023-07-31T12:00:09;3.00;2.00;
53658;PMS5003;41524;35.624;139.698;2023-07-31T12:05:11;6.00;5.00;
53658;PMS5003;41524;35.624;139.698;2023-07-31T12:10:10;2.00;2.00;
53658;PMS5003;41524;35.624;139.698;2023-07-31T12:15:14;1.00;1.00;
53658;PMS5003;41524;35.624;139.698;2023-07-31T12:20:09;1.00;1.00;
53658;PMS5003;41524;35.624;139.698;2023-07-31T12:25:15;1.00;1.00;
53658;PMS5003;41524;35.624;139.698;2023-07-31T12:30:26;1.00;1.00;
53658;PMS5003;41524;35.624;139.698;2023-07-31T12:35:09;3.00;2.00;
53658;PMS5003;41524;35.624;139.698;2023-07-31T12:40:10;5.00;4.00;
53658;PMS5003;41524;35.624;139.698;2023-07-31T12:45:09;1.00;1.00;
53658;PMS5003;41524;35.624;139.698;2023-07-31T12:50:09;3.00;1.00;
53658;PMS5003;41524;35.624;139.698;2023-07-31T12:55:09;3.00;2.00;
53658;PMS5003;41524;35.624;139.698;2023-07-31T13:00:09;1.00;1.00;
53658;PMS5003;41524;35.624;139.698;2023-07-31T13:05:10;4.00;3.00;
53658;PMS5003;41524;35.624;139.698;2023-07-31T13:10:09;1.00;1.00;
53658;PMS5003;41524;35.624;139.698;2023-07-31T13:15:10;2.00;2.00;
53658;PMS5003;41524;35.624;139.698;2023-07-31T13:20:09;0.00;0.00;
53658;PMS5003;41524;35.624;139.698;2023-07-31T13:25:09;2.00;2.00;
53658;PMS5003;41524;35.624;139.698;2023-07-31T13:30:11;1.00;1.00;
53658;PMS5003;41524;35.624;139.698;2023-07-31T13:35:10;3.00;3.00;
53658;PMS5003;41524;35.624;139.698;2023-07-31T13:40:09;3.00;3.00;
53658;PMS5003;41524;35.624;139.698;2023-07-31T13:45:09;4.00;2.00;
53658;PMS5003;41524;35.624;139.698;2023-07-31T13:50:09;3.00;3.00;
53658;PMS5003;41524;35.624;139.698;2023-07-31T13:55:09;2.00;2.00;
53658;PMS5003;41524;35.624;139.698;2023-07-31T14:00:10;2.00;2.00;
53658;PMS5003;41524;35.624;139.698;2023-07-31T14:05:11;2.00;1.00;
53658;PMS5003;41524;35.624;139.698;2023-07-31T14:10:09;4.00;2.00;
53658;PMS5003;41524;35.624;139.698;2023-07-31T14:15:25;1.00;1.00;
53658;PMS5003;41524;35.624;139.698;2023-07-31T14:20:10;2.00;1.00;
53658;PMS5003;41524;35.624;139.698;2023-07-31T14:25:09;1.00;0.00;
53658;PMS5003;41524;35.624;139.698;2023-07-31T14:30:25;2.00;2.00;
53658;PMS5003;41524;35.624;139.698;2023-07-31T14:35:09;3.00;3.00;
53658;PMS5003;41524;35.624;139.698;2023-07-31T14:40:21;1.00;1.00;
53658;PMS5003;41524;35.624;139.698;2023-07-31T14:45:12;7.00;2.00;
53658;PMS5003;41524;35.624;139.698;2023-07-31T14:50:10;1.00;1.00;
53658;PMS5003;41524;35.624;139.698;2023-07-31T14:55:11;3.00;3.00;
53658;PMS5003;41524;35.624;139.698;2023-07-31T15:00:15;3.00;2.00;
53658;PMS5003;41524;35.624;139.698;2023-07-31T15:05:09;1.00;1.00;
53658;PMS5003;41524;35.624;139.698;2023-07-31T15:10:10;2.00;1.00;
53658;PMS5003;41524;35.624;139.698;2023-07-31T15:15:10;1.00;1.00;
53658;PMS5003;41524;35.624;139.698;2023-07-31T15:20:10;2.00;2.00;
53658;PMS5003;41524;35.624;139.698;2023-07-31T15:25:11;2.00;2.00;
53658;PMS5003;41524;35.624;139.698;2023-07-31T15:30:09;1.00;1.00;
53658;PMS5003;41524;35.624;139.698;2023-07-31T15:35:10;4.00;3.00;
53658;PMS5003;41524;35.624;139.698;2023-07-31T15:40:10;1.00;1.00;
53658;PMS5003;41524;35.624;139.698;2023-07-31T15:45:10;2.00;2.00;
53658;PMS5003;41524;35.624;139.698;2023-07-31T15:50:09;1.00;1.00;
53658;PMS5003;41524;35.624;139.698;2023-07-31T15:55:10;1.00;0.00;
53658;PMS5003;41524;35.624;139.698;2023-07-31T16:00:10;3.00;3.00;
53658;PMS5003;41524;35.624;139.698;2023-07-31T16:05:10;2.00;1.00;
53658;PMS5003;41524;35.624;139.698;2023-07-31T16:10:12;2.00;2.00;
53658;PMS5003;41524;35.624;139.698;2023-07-31T16:15:11;1.00;1.00;
53658;PMS5003;41524;35.624;139.698;2023-07-31T16:20:10;3.00;2.00;
53658;PMS5003;41524;35.624;139.698;2023-07-31T16:25:09;5.00;5.00;
53658;PMS5003;41524;35.624;139.698;2023-07-31T16:30:10;2.00;2.00;
53658;PMS5003;41524;35.624;139.698;2023-07-31T16:35:10;4.00;4.00;
53658;PMS5003;41524;35.624;139.698;2023-07-31T16:40:10;3.00;3.00;
53658;PMS5003;41524;35.624;139.698;2023-07-31T16:45:09;4.00;3.00;
53658;PMS5003;41524;35.624;139.698;2023-07-31T16:50:10;5.00;3.00;
53658;PMS5003;41524;35.624;139.698;2023-07-31T16:55:09;2.00;2.00;
53658;PMS5003;41524;35.624;139.698;2023-07-31T17:00:09;2.00;2.00;
53658;PMS5003;41524;35.624;139.698;2023-07-31T17:05:10;3.00;3.00;
53658;PMS5003;41524;35.624;139.698;2023-07-31T17:10:09;7.00;7.00;
53658;PMS5003;41524;35.624;139.698;2023-07-31T17:15:10;5.00;3.00;
53658;PMS5003;41524;35.624;139.698;2023-07-31T17:20:09;3.00;3.00;
53658;PMS5003;41524;35.624;139.698;2023-07-31T17:25:09;6.00;4.00;
53658;PMS5003;41524;35.624;139.698;2023-07-31T17:30:09;6.00;4.00;
53658;PMS5003;41524;35.624;139.698;2023-07-31T17:35:09;3.00;3.00;
53658;PMS5003;41524;35.624;139.698;2023-07-31T17:40:09;2.00;2.00;
53658;PMS5003;41524;35.624;139.698;2023-07-31T17:45:10;2.00;2.00;
53658;PMS5003;41524;35.624;139.698;2023-07-31T17:50:09;3.00;3.00;
53658;PMS5003;41524;35.624;139.698;2023-07-31T17:55:09;3.00;3.00;
53658;PMS5003;41524;35.624;139.698;2023-07-31T18:00:11;3.00;3.00;
53658;PMS5003;41524;35.624;139.698;2023-07-31T18:05:12;5.00;5.00;
53658;PMS5003;41524;35.624;139.698;2023-07-31T18:10:09;7.00;6.00;
53658;PMS5003;41524;35.624;139.698;2023-07-31T18:15:09;5.00;5.00;
53658;PMS5003;41524;35.624;139.698;2023-07-31T18:20:10;9.00;6.00;
53658;PMS5003;41524;35.624;139.698;2023-07-31T18:25:09;10.00;9.00;
53658;PMS5003;41524;35.624;139.698;2023-07-31T18:30:11;6.00;5.00;
53658;PMS5003;41524;35.624;139.698;2023-07-31T18:35:09;4.00;3.00;
53658;PMS5003;41524;35.624;139.698;2023-07-31T18:40:10;6.00;5.00;
53658;PMS5003;41524;35.624;139.698;2023-07-31T18:45:09;5.00;5.00;
53658;PMS5003;41524;35.624;139.698;2023-07-31T18:50:11;5.00;5.00;
53658;PMS5003;41524;35.624;139.698;2023-07-31T18:55:09;4.00;4.00;
53658;PMS5003;41524;35.624;139.698;2023-07-31T19:00:10;4.00;4.00;
53658;PMS5003;41524;35.624;139.698;2023-07-31T19:05:09;9.00;9.00;
53658;PMS5003;41524;35.624;139.698;2023-07-31T19:10:09;7.00;7.00;
53658;PMS5003;41524;35.624;139.698;2023-07-31T19:15:10;6.00;6.00;
53658;PMS5003;41524;35.624;139.698;2023-07-31T19:20:10;3.00;3.00;
53658;PMS5003;41524;35.624;139.698;2023-07-31T19:25:10;7.00;7.00;
53658;PMS5003;41524;35.624;139.698;2023-07-31T19:30:10;10.00;8.00;
53658;PMS5003;41524;35.624;139.698;2023-07-31T19:35:11;4.00;4.00;
53658;PMS5003;41524;35.624;139.698;2023-07-31T19:40:10;7.00;5.00;
53658;PMS5003;41524;35.624;139.698;2023-07-31T19:45:10;6.00;5.00;
53658;PMS5003;41524;35.624;139.698;2023-07-31T19:50:10;9.00;9.00;
53658;PMS5003;41524;35.624;139.698;2023-07-31T19:55:10;6.00;6.00;
53658;PMS5003;41524;35.624;139.698;2023-07-31T20:00:09;6.00;6.00;
53658;PMS5003;41524;35.624;139.698;2023-07-31T20:05:09;5.00;5.00;
53658;PMS5003;41524;35.624;139.698;2023-07-31T20:10:09;5.00;5.00;
53658;PMS5003;41524;35.624;139.698;2023-07-31T20:15:18;15.00;11.00;
53658;PMS5003;41524;35.624;139.698;2023-07-31T20:20:20;8.00;8.00;
53658;PMS5003;41524;35.624;139.698;2023-07-31T20:25:09;7.00;7.00;
53658;PMS5003;41524;35.624;139.698;2023-07-31T20:30:09;6.00;6.00;
53658;PMS5003;41524;35.624;139.698;2023-07-31T20:35:10;8.00;7.00;
53658;PMS5003;41524;35.624;139.698;2023-07-31T20:40:09;6.00;5.00;
53658;PMS5003;41524;35.624;139.698;2023-07-31T20:45:10;6.00;6.00;
53658;PMS5003;41524;35.624;139.698;2023-07-31T20:50:09;6.00;6.00;
53658;PMS5003;41524;35.624;139.698;2023-07-31T20:55:09;6.00;5.00;
53658;PMS5003;41524;35.624;139.698;2023-07-31T21:00:10;4.00;3.00;
53658;PMS5003;41524;35.624;139.698;2023-07-31T21:05:08;6.00;6.00;
53658;PMS5003;41524;35.624;139.698;2023-07-31T21:10:09;3.00;3.00;
53658;PMS5003;41524;35.624;139.698;2023-07-31T21:15:10;5.00;5.00;
53658;PMS5003;41524;35.624;139.698;2023-07-31T21:20:10;7.00;7.00;
53658;PMS5003;41524;35.624;139.698;2023-07-31T21:25:10;4.00;4.00;
53658;PMS5003;41524;35.624;139.698;2023-07-31T21:30:09;5.00;5.00;
53658;PMS5003;41524;35.624;139.698;2023-07-31T21:35:09;6.00;6.00;
53658;PMS5003;41524;35.624;139.698;2023-07-31T21:40:10;6.00;5.00;
53658;PMS5003;41524;35.624;139.698;2023-07-31T21:45:09;4.00;4.00;
53658;PMS5003;41524;35.624;139.698;2023-07-31T21:50:09;6.00;5.00;
53658;PMS5003;41524;35.624;139.698;2023-07-31T21:55:09;5.00;5.00;
53658;PMS5003;41524;35.624;139.698;2023-07-31T22:00:09;4.00;4.00;
53658;PMS5003;41524;35.624;139.698;2023-07-31T22:05:09;7.00;6.00;
53658;PMS5003;41524;35.624;139.698;2023-07-31T22:10:09;3.00;3.00;
53658;PMS5003;41524;35.624;139.698;2023-07-31T22:15:10;5.00;5.00;
53658;PMS5003;41524;35.624;139.698;2023-07-31T22:20:09;4.00;4.00;
53658;PMS5003;41524;35.624;139.698;2023-07-31T22:25:09;6.00;6.00;
53658;PMS5003;41524;35.624;139.698;2023-07-31T22:30:09;4.00;4.00;
53658;PMS5003;41524;35.624;139.698;2023-07-31T22:35:09;5.00;5.00;
53658;PMS5003;41524;35.624;139.698;2023-07-31T22:40:10;5.00;5.00;
53658;PMS5003;41524;35.624;139.698;2023-07-31T22:45:10;6.00;6.00;
53658;PMS5003;41524;35.624;139.698;2023-07-31T22:50:08;6.00;5.00;
53658;PMS5003;41524;35.624;139.698;2023-07-31T22:55:09;6.00;5.00;
53658;PMS5003;41524;35.624;139.698;2023-07-31T23:00:10;5.00;5.00;
53658;PMS5003;41524;35.624;139.698;2023-07-31T23:05:09;6.00;6.00;
53658;PMS5003;41524;35.624;139.698;2023-07-31T23:10:09;10.00;7.00;
53658;PMS5003;41524;35.624;139.698;2023-07-31T23:15:09;6.00;5.00;
53658;PMS5003;41524;35.624;139.698;2023-07-31T23:20:09;2.00;2.00;
53658;PMS5003;41524;35.624;139.698;2023-07-31T23:25:10;10.00;9.00;
53658;PMS5003;41524;35.624;139.698;2023-07-31T23:30:10;4.00;4.00;
53658;PMS5003;41524;35.624;139.698;2023-07-31T23:35:09;3.00;3.00;
53658;PMS5003;41524;35.624;139.698;2023-07-31T23:40:10;7.00;6.00;
53658;PMS5003;41524;35.624;139.698;2023-07-31T23:45:09;4.00;4.00;
53658;PMS5003;41524;35.624;139.698;2023-07-31T23:50:09;5.00;5.00;
53658;PMS5003;41524;35.624;139.698;2023-07-31T23:55:09;5.00;4.00;
